Stratford, WA (98853)

12:03 AM PDT on September 02, 2015 (GMT -0700)
Adrian | | Change Station
CLOSE
Current Station
Personal Weather Station
Location: Soap Lake, WA
Elevation: 1201 ft
Nearby Weather Stations

Elev 1201 ft 47.39 °N, 119.38 °W | Updated 20 seconds ago

Partly Cloudy
Partly Cloudy
63.1 °F
Feels Like 63.1 °F
N
0.0
Wind Variable Wind from South
Gusts 0.0 mph

Today
High -- | Low -- °F
--% Chance of Precip.
Yesterday
High -- | Low -- °F
Precip. -- in
6:17 AM 7:35 PM
Waning Gibbous, 83% visible
Pressure 29.69 in
Visibility 10.0 miles
Clouds Scattered Clouds 11000 ft
Dew Point 49 °F
Humidity 59%
Rainfall 0.00 in
Snow Depth Not available.
UV 0 out of 12
Pollen 4.20 out of 12
Air Quality Not available.
Flu Activity Not available.
METAR KMWH 020652Z AUTO 23007KT 10SM SCT110 19/09 A2971 RMK AO2 SLP054 T01940094
Pressure 29.69 in
Visibility 10.0 miles
Clouds Scattered Clouds 11000 ft
Dew Point 49 °F
Humidity 59%
Rainfall 0.00 in
Snow Depth Not available.
UV 0 out of 12
Pollen 4.20 out of 12
Air Quality Not available.
Flu Activity Not available.
METAR KMWH 020652Z AUTO 23007KT 10SM SCT110 19/09 A2971 RMK AO2 SLP054 T01940094

10-Day Weather Forecast

×

Almanac

Astronomy

Sep. 02, 2015 Rise Set
Actual Time
Civil Twilight
Nautical Twilight
Astronomical Twilight
Moon
Length of Visible Light
Length of Day
Tomorrow will be .
, % of the Moon is Illuminated

Today's Extremes

State Highs State Lows

Community

WunderPhotos

Upload Photos

1,851,709 photos uploaded!

WunderBlogs® & News

Nearby

Air Quality

  Air Quality AQ Index Pollutant
Not available.

Snow Depth

Station Depth Elevation

Earthquake Activity

City Distance Mag. Time & Date
Minimum magnitude displayed is 2.5.

Coastal Water Temperatures

Place Temperature

Stations

Nearby Weather Stations

Station Location Temp. Windchill Dew Point Humidity Wind Precip. Elev Updated Type